Date,TemperatureHighF,TemperatureAvgF,TemperatureLowF,DewpointHighF,DewpointAvgF,DewpointLowF,HumidityHigh,HumidityAvg,HumidityLow,PressureMaxIn,PressureMinIn,WindSpeedMaxMPH,WindSpeedAvgMPH,GustSpeedMaxMPH,PrecipitationSumIn
2013-1-16,35,34,34,28,25,22,79,70,58,30.01,29.89,21,6,21,0.01
2013-1-26,28,24,17,22,18,14,91,80,68,30.44,30.32,9,1,9,0.02
2013-1-27,33,26,17,32,22,14,94,83,74,30.45,30.03,23,6,23,0.00
2013-1-28,47,41,33,47,40,32,98,97,94,30.05,29.88,13,3,13,0.18
2013-2-1,6,5,5,3,3,2,90,88,86,30.31,30.27,1,0,1,0.00
2013-2-2,24,18,6,23,16,4,93,91,80,30.27,30.00,17,2,17,0.00
2013-2-7,40,33,26,31,27,23,88,80,69,30.18,29.85,13,4,13,0.12
2013-2-8,33,31,29,32,28,24,97,90,75,30.26,29.82,15,7,22,0.07
2013-2-22,33,29,23,32,28,22,97,96,94,29.94,29.86,18,5,18,0.02
2013-2-23,29,28,27,28,25,23,94,88,87,29.93,29.92,17,4,17,0.00
2013-4-4,54,46,40,30,25,22,63,45,29,29.98,29.96,6,1,7,0.00
2013-4-5,50,42,32,33,26,18,87,54,30,30.19,29.95,14,5,17,0.00
2013-4-6,64,48,32,44,31,26,81,54,36,30.17,29.69,21,7,21,0.00
2013-4-7,60,52,46,49,45,39,82,75,56,29.88,29.61,27,7,33,0.01
2013-4-18,63,60,59,62,59,58,97,96,95,29.64,29.46,13,6,17,0.07
2013-4-19,59,43,34,58,39,30,97,86,72,29.85,29.44,30,8,30,0.06
2013-4-20,40,35,29,32,24,18,95,66,42,30.45,29.84,22,7,23,0.13
2013-4-21,30,27,26,26,23,20,92,84,74,30.55,30.45,4,0,4,0.01
2013-5-11,55,47,40,50,42,35,96,81,64,29.98,29.81,33,6,33,0.08
2013-5-12,41,40,37,37,35,32,93,83,74,30.01,29.98,18,4,18,0.00
2013-7-5,79,76,73,68,66,65,83,72,65,30.07,30.05,6,2,6,0.00
2013-8-9,80,73,61,66,62,59,96,70,51,29.97,29.93,10,2,12,0.00
2013-8-11,78,71,58,66,61,57,97,73,52,30.09,30.00,11,2,11,0.00
2013-8-12,78,68,64,70,65,62,95,91,72,30.02,29.92,7,0,7,0.00
2013-8-17,66,66,66,61,61,60,83,82,82,30.15,30.15,0,0,0,0.00
2013-8-22,71,70,70,67,67,67,89,89,89,29.99,29.99,3,1,3,0.27
2013-9-18,79,76,68,62,61,59,77,61,52,29.98,29.94,5,1,5,0.00
2013-10-7,60,58,55,48,47,46,77,67,62,30.02,29.98,10,4,10,0.00
2013-10-12,79,70,50,63,58,49,98,68,45,30.06,29.97,14,2,14,0.00
2013-10-13,63,54,44,61,49,40,98,87,47,30.33,30.08,18,2,18,0.01
2013-10-21,45,45,44,34,33,32,64,63,62,29.90,29.90,20,6,20,0.00
2013-10-24,38,38,38,34,34,34,87,85,84,30.22,30.21,7,1,7,0.00
2013-10-25,47,38,32,38,33,28,100,85,48,30.40,30.24,14,2,18,0.00
2013-11-17,63,63,63,61,61,61,94,94,94,29.24,29.22,9,4,9,0.03
2013-11-22,37,33,29,34,30,27,92,90,84,30.42,30.40,19,3,19,0.01
2013-11-23,30,29,26,27,26,20,91,88,67,30.43,30.35,25,3,25,0.00
2013-11-29,27,27,27,22,22,22,83,83,83,30.56,30.56,0,0,0,0.00
2013-12-5,30,29,28,23,22,22,77,75,73,30.19,30.07,7,6,16,0.01
2013-12-6,28,25,24,23,19,16,81,76,71,30.45,30.20,15,6,16,0.00
2013-12-7,24,22,21,18,17,14,82,78,73,30.56,30.45,15,6,15,0.00
2013-12-8,26,23,14,24,19,11,95,85,72,30.59,29.99,17,5,17,0.00
2013-12-9,27,25,16,26,22,9,95,90,71,30.19,29.93,16,4,22,0.00
2013-12-10,23,14,2,14,7,-2,83,74,63,30.23,30.06,21,4,28,0.00
2013-12-11,23,19,17,20,15,11,91,85,74,30.38,30.30,20,4,20,0.00
2013-12-12,22,10,0,19,4,-5,86,74,54,30.54,30.32,8,3,22,0.00
2013-12-13,15,10,9,9,7,7,89,87,77,30.32,30.23,1,0,3,0.00
2013-12-14,27,24,22,24,22,20,94,93,87,30.20,29.87,12,5,16,0.00
2013-12-15,25,21,19,24,19,17,94,92,91,29.95,29.90,16,4,18,0.00
2013-12-16,20,14,0,16,10,-3,92,87,76,30.20,30.04,5,2,10,0.00
2013-12-17,28,23,17,25,21,15,94,92,85,30.07,29.96,6,3,16,0.00
2013-12-18,27,24,20,22,18,16,86,78,69,30.20,29.91,6,3,13,0.06
2013-12-19,43,38,28,38,34,21,95,85,75,29.98,29.85,4,2,14,0.27
2013-12-20,41,39,35,41,38,34,98,98,96,29.85,29.71,3,1,8,0.01
2013-12-21,35,34,33,35,34,32,99,98,97,29.82,29.63,9,1,21,0.01
2013-12-22,35,34,31,34,32,29,100,95,93,30.04,29.52,14,4,19,0.04
2013-12-23,31,24,10,29,20,5,94,85,72,30.41,30.03,17,6,17,0.01
2013-12-24,20,11,5,13,7,1,94,83,73,30.57,30.41,14,3,14,0.00
2013-12-25,25,22,16,22,18,13,89,84,80,30.49,30.21,14,3,14,0.00
2013-12-26,31,27,21,29,23,17,95,85,73,30.32,30.10,9,2,21,0.00
2013-12-27,40,34,31,33,29,27,89,83,75,30.32,30.11,16,2,16,0.40
2013-12-28,40,37,34,33,32,30,87,82,77,30.11,30.08,9,3,18,0.07
2013-12-29,39,29,23,34,26,19,91,87,78,30.08,29.75,26,8,26,0.09
2013-12-30,23,18,14,19,12,10,86,79,71,30.30,30.08,14,4,18,0.00
2013-12-31,15,14,13,12,10,7,90,86,72,30.38,30.17,14,3,14,0.00
2014-1-1,17,15,13,14,13,10,91,90,89,30.35,30.20,14,3,14,0.00
2014-1-2,14,11,-3,12,8,-7,91,87,80,30.40,30.11,17,5,20,0.00